Time;durP1;ratioP1;P1;durP2;ratioP2;P2;SDS_P1;SDS_P2;PMS_P1;PMS_P2;Temp;Humidity;BMP_temperature;BMP_pressure;BME280_temperature;BME280_humidity;BME280_pressure;Samples;Min_cycle;Max_cycle;Signal;HPM_P1;HPM_P2
2021/06/19 00:00:47;;;;;;;;;;;14.90;81.40;;;;;;5075635;28;20028;-73
2021/06/19 00:03:12;;;;;;;9.13;4.65;;;15.00;81.00;;;;;;5073628;28;19911;-73
2021/06/19 00:05:38;;;;;;;8.57;4.05;;;15.00;80.80;;;;;;5075145;28;20020;-73
2021/06/19 00:08:05;;;;;;;7.50;3.65;;;15.00;80.70;;;;;;5075141;28;20040;-74
2021/06/19 00:10:30;;;;;;;11.40;4.47;;;14.90;80.60;;;;;;5075026;28;20043;-72
2021/06/19 00:12:57;;;;;;;10.70;4.38;;;14.80;80.90;;;;;;5075010;28;20500;-73
2021/06/19 00:15:24;;;;;;;8.68;4.47;;;14.60;81.90;;;;;;5074957;28;20109;-70
2021/06/19 00:17:50;;;;;;;9.00;3.78;;;14.30;84.00;;;;;;5073487;28;20051;-73
2021/06/19 00:20:17;;;;;;;;;;;14.30;84.50;;;;;;5075241;28;20053;-72
2021/06/19 00:22:44;;;;;;;8.52;3.80;;;14.50;83.70;;;;;;5074736;28;19927;-72
2021/06/19 00:25:11;;;;;;;8.85;4.00;;;14.60;83.10;;;;;;5074721;28;20025;-73
2021/06/19 00:27:38;;;;;;;8.85;3.90;;;14.90;82.20;;;;;;5074577;28;20028;-72
2021/06/19 00:30:06;;;;;;;9.32;4.25;;;14.90;81.80;;;;;;5074596;28;20481;-72
2021/06/19 00:32:32;;;;;;;10.55;5.07;;;14.90;81.40;;;;;;5074555;28;20388;-71
2021/06/19 00:34:58;;;;;;;8.85;4.47;;;14.60;83.00;;;;;;5074572;28;20024;-73
2021/06/19 00:37:24;;;;;;;;;;;14.70;82.90;;;;;;5074634;28;20052;-73
2021/06/19 00:39:50;;;;;;;8.77;4.10;;;14.80;81.70;;;;;;5074363;28;19904;-73
2021/06/19 00:42:21;;;;;;;11.40;4.80;;;14.80;82.40;;;;;;5074336;28;20036;-74
2021/06/19 00:44:47;;;;;;;10.10;5.32;;;14.80;82.10;;;;;;5074339;28;20128;-72
2021/06/19 00:47:13;;;;;;;10.85;5.10;;;14.80;82.30;;;;;;5074327;28;20024;-73
2021/06/19 00:49:39;;;;;;;10.82;6.28;;;14.90;81.80;;;;;;5074097;28;20028;-74
2021/06/19 00:52:05;;;;;;;11.40;5.25;;;14.90;81.60;;;;;;5072900;28;20036;-72
2021/06/19 00:54:31;;;;;;;11.32;5.68;;;14.80;82.40;;;;;;5074182;28;20020;-73
2021/06/19 00:56:57;;;;;;;12.70;6.40;;;14.70;82.10;;;;;;5074440;28;20028;-72
2021/06/19 00:59:24;;;;;;;;;;;14.40;82.90;;;;;;5074476;28;20020;-73
2021/06/19 01:01:49;;;;;;;10.88;4.70;;;14.20;84.70;;;;;;5073978;28;19904;-72
2021/06/19 01:04:15;;;;;;;10.25;5.78;;;14.50;83.80;;;;;;5074017;28;20074;-73
2021/06/19 01:06:41;;;;;;;;;;;14.60;82.70;;;;;;5074699;28;20051;-73
2021/06/19 01:09:09;;;;;;;9.82;5.40;;;14.70;82.40;;;;;;5074007;28;19904;-72
2021/06/19 01:11:36;;;;;;;9.05;5.18;;;14.80;81.90;;;;;;5073875;28;20020;-74
2021/06/19 01:14:03;;;;;;;11.23;6.13;;;14.80;81.90;;;;;;5073845;28;20025;-72
2021/06/19 01:16:29;;;;;;;12.43;6.10;;;14.80;82.10;;;;;;5074137;28;20397;-71
2021/06/19 01:18:55;;;;;;;12.13;5.82;;;14.70;82.50;;;;;;5073848;28;20024;-73
2021/06/19 01:21:23;;;;;;;12.00;6.15;;;14.80;81.10;;;;;;5073720;28;20395;-73
2021/06/19 01:23:49;;;;;;;11.70;5.55;;;15.00;80.00;;;;;;5073593;28;20013;-71
2021/06/19 01:26:16;;;;;;;13.48;5.60;;;14.90;79.90;;;;;;5073610;28;20021;-73
2021/06/19 01:28:43;;;;;;;14.25;5.38;;;15.00;79.60;;;;;;5073583;28;20025;-71
2021/06/19 01:31:10;;;;;;;10.95;5.30;;;14.80;80.80;;;;;;5073475;28;20052;-72
2021/06/19 01:33:39;;;;;;;11.23;5.68;;;14.70;81.40;;;;;;5073611;28;20484;-74
2021/06/19 01:36:06;;;;;;;12.05;4.93;;;14.50;82.10;;;;;;5073334;28;20052;-72
2021/06/19 01:38:37;;;;;;;11.32;5.10;;;14.50;82.40;;;;;;5073603;28;20499;-74
2021/06/19 01:41:03;;;;;;;12.23;4.65;;;14.40;83.30;;;;;;5073783;28;20028;-73
2021/06/19 01:43:29;;;;;;;7.78;3.47;;;14.40;83.70;;;;;;5073461;28;20021;-72
2021/06/19 01:45:54;;;;;;;;;;;14.60;83.00;;;;;;5073797;28;20401;-74
2021/06/19 01:48:20;;;;;;;;;;;14.80;82.10;;;;;;5074233;28;19904;-72
2021/06/19 01:50:46;;;;;;;9.35;4.05;;;14.90;81.50;;;;;;5073658;28;19908;-73
2021/06/19 01:53:11;;;;;;;9.20;4.35;;;14.90;81.30;;;;;;5073528;28;20025;-72
2021/06/19 01:55:37;;;;;;;;;;;14.90;80.60;;;;;;5073550;28;20025;-73
2021/06/19 01:58:03;;;;;;;;;;;15.00;80.10;;;;;;5073476;28;19908;-73
2021/06/19 02:00:35;;;;;;;9.30;3.60;;;14.80;80.20;;;;;;5072784;28;20249;-71
2021/06/19 02:03:01;;;;;;;8.13;3.20;;;14.60;82.10;;;;;;5073109;28;20430;-74
2021/06/19 02:05:28;;;;;;;7.40;2.88;;;14.60;82.30;;;;;;5073026;28;20028;-73
2021/06/19 02:07:55;;;;;;;6.40;3.00;;;14.60;82.20;;;;;;5073047;28;20420;-72
2021/06/19 02:10:25;;;;;;;7.68;3.53;;;14.50;82.90;;;;;;5072971;28;20028;-73
2021/06/19 02:12:51;;;;;;;6.78;3.20;;;14.40;83.30;;;;;;5073212;28;20404;-74
2021/06/19 02:15:17;;;;;;;8.75;3.33;;;14.30;83.50;;;;;;5073158;28;20500;-73
2021/06/19 02:17:43;;;;;;;7.75;3.47;;;14.40;83.20;;;;;;5072838;28;20457;-74
2021/06/19 02:20:11;;;;;;;7.65;3.58;;;14.50;82.80;;;;;;5072896;28;20027;-72
2021/06/19 02:22:37;;;;;;;7.60;3.38;;;14.70;81.80;;;;;;5072798;28;20071;-71
2021/06/19 02:25:04;;;;;;;;;;;14.80;81.20;;;;;;5073382;28;20025;-73
2021/06/19 02:27:30;;;;;;;8.25;3.20;;;14.90;80.90;;;;;;5072758;28;19927;-73
2021/06/19 02:29:56;;;;;;;7.85;3.53;;;14.70;80.50;;;;;;5072810;28;20481;-73
2021/06/19 02:32:22;;;;;;;8.50;3.17;;;14.70;80.70;;;;;;5072714;28;20028;-72
2021/06/19 02:34:47;;;;;;;;;;;14.70;80.80;;;;;;5073200;28;20121;-71
2021/06/19 02:37:13;;;;;;;5.55;2.90;;;14.60;81.10;;;;;;5072349;28;19951;-73
2021/06/19 02:39:39;;;;;;;6.68;3.03;;;14.60;81.70;;;;;;5072652;28;20036;-72
2021/06/19 02:42:05;;;;;;;8.45;4.00;;;14.60;81.30;;;;;;5072776;28;20024;-72
2021/06/19 02:44:31;;;;;;;;;;;14.50;81.60;;;;;;5073010;28;20024;-72
2021/06/19 02:46:56;;;;;;;10.25;4.25;;;14.20;82.50;;;;;;5072808;28;19999;-71
2021/06/19 02:49:22;;;;;;;7.95;3.83;;;14.10;83.30;;;;;;5072670;28;20031;-72
2021/06/19 02:51:48;;;;;;;;;;;14.00;84.40;;;;;;5073223;28;20064;-73
2021/06/19 02:54:13;;;;;;;;;;;13.90;84.90;;;;;;5073051;28;20316;-73
2021/06/19 02:56:39;;;;;;;;;;;14.20;83.70;;;;;;5072942;28;19904;-71
2021/06/19 02:59:05;;;;;;;;;;;14.30;83.20;;;;;;5071510;28;20002;-73
2021/06/19 03:01:30;;;;;;;;;;;14.20;83.10;;;;;;5073186;28;19985;-71
2021/06/19 03:03:56;;;;;;;;;;;14.30;83.20;;;;;;5073149;28;20275;-72
2021/06/19 03:06:21;;;;;;;;;;;14.20;83.60;;;;;;5072950;28;19904;-73
2021/06/19 03:08:47;;;;;;;7.70;3.17;;;14.40;82.90;;;;;;5072522;28;20399;-72
2021/06/19 03:11:13;;;;;;;9.50;3.50;;;14.60;82.00;;;;;;5072398;28;20485;-72
2021/06/19 03:13:38;;;;;;;8.75;3.20;;;14.60;81.90;;;;;;5073722;28;20029;-74
2021/06/19 03:16:04;;;;;;;8.50;3.60;;;14.60;82.30;;;;;;5076156;28;20070;-74
2021/06/19 03:18:30;;;;;;;9.77;3.58;;;14.80;81.40;;;;;;5075863;28;20024;-74
2021/06/19 03:20:56;;;;;;;;;;;14.90;80.30;;;;;;5076218;28;20476;-72
2021/06/19 03:23:22;;;;;;;;;;;15.00;80.00;;;;;;5076177;28;19904;-71
2021/06/19 03:25:47;;;;;;;6.95;3.38;;;15.00;80.00;;;;;;5075780;28;19909;-71
2021/06/19 03:28:14;;;;;;;;;;;15.10;80.20;;;;;;5076095;28;20075;-74
2021/06/19 03:30:44;;;;;;;7.97;3.60;;;15.10;80.00;;;;;;5075665;28;19904;-72
2021/06/19 03:33:12;;;;;;;12.25;4.03;;;15.00;80.30;;;;;;5075774;28;20488;-73
2021/06/19 03:35:38;;;;;;;7.63;3.70;;;14.90;81.50;;;;;;5075328;28;20174;-72
2021/06/19 03:38:07;;;;;;;;;;;14.70;82.20;;;;;;5075906;28;20507;-74
2021/06/19 03:40:34;;;;;;;9.48;3.40;;;14.70;82.00;;;;;;5075489;28;19904;-72
2021/06/19 03:43:00;;;;;;;13.45;4.13;;;14.70;82.10;;;;;;5075948;28;20048;-72
2021/06/19 03:45:29;;;;;;;10.27;4.07;;;14.80;82.50;;;;;;5075422;28;20059;-72
2021/06/19 03:47:55;;;;;;;8.52;3.60;;;15.10;81.40;;;;;;5075348;28;20025;-73
2021/06/19 03:50:23;;;;;;;9.52;3.70;;;15.20;81.10;;;;;;5075315;28;20025;-73
2021/06/19 03:52:49;;;;;;;7.60;3.65;;;15.30;80.20;;;;;;5075571;28;20032;-73
2021/06/19 03:55:15;;;;;;;11.32;4.30;;;15.30;80.20;;;;;;5075206;28;20025;-73
2021/06/19 03:57:41;;;;;;;;;;;15.30;80.40;;;;;;5075528;28;20051;-73
2021/06/19 04:00:12;;;;;;;8.82;3.58;;;15.30;80.70;;;;;;5075094;28;19987;-72
2021/06/19 04:02:39;;;;;;;9.52;3.42;;;15.30;80.90;;;;;;5075400;28;20096;-71
2021/06/19 04:05:05;;;;;;;;;;;15.20;81.50;;;;;;5075552;28;20123;-73
2021/06/19 04:07:31;;;;;;;12.32;4.75;;;15.30;81.10;;;;;;5074932;28;20322;-74
2021/06/19 04:09:57;;;;;;;15.25;4.90;;;15.10;82.40;;;;;;5074942;28;20024;-71
2021/06/19 04:12:23;;;;;;;;;;;15.00;83.50;;;;;;5075523;28;20491;-71
2021/06/19 04:14:50;;;;;;;16.65;5.00;;;15.00;83.40;;;;;;5075126;28;19904;-73
2021/06/19 04:17:16;;;;;;;14.65;4.63;;;15.10;83.60;;;;;;5074803;28;20059;-71
2021/06/19 04:19:43;;;;;;;11.98;4.45;;;15.10;83.60;;;;;;5074621;28;20070;-72
2021/06/19 04:22:10;;;;;;;12.00;4.80;;;15.20;83.10;;;;;;5074651;28;20048;-72
2021/06/19 04:24:37;;;;;;;12.43;4.88;;;15.30;82.80;;;;;;5074225;28;20024;-73
2021/06/19 04:27:04;;;;;;;12.27;5.32;;;15.30;83.40;;;;;;5073293;28;20384;-71
2021/06/19 04:29:31;;;;;;;15.25;5.30;;;15.40;83.80;;;;;;5074531;28;20039;-73
2021/06/19 04:31:59;;;;;;;12.00;5.60;;;15.40;84.00;;;;;;5074408;28;20077;-72
2021/06/19 04:34:24;;;;;;;15.27;4.68;;;15.60;82.70;;;;;;5074469;28;20029;-72
2021/06/19 04:36:51;;;;;;;12.00;5.13;;;15.70;82.20;;;;;;5074296;28;20036;-74
2021/06/19 04:39:17;;;;;;;13.57;4.78;;;15.90;81.50;;;;;;5074213;28;20044;-72
2021/06/19 04:41:50;;;;;;;12.52;4.30;;;15.90;81.10;;;;;;5074287;28;20012;-74
2021/06/19 04:45:02;;;;;;;20.95;4.80;;;16.00;81.10;;;;;;5074447;28;20035;-74
2021/06/19 04:47:03;;;;;;;14.05;4.70;;;16.00;81.00;;;;;;5066673;28;20068;-73
2021/06/19 04:49:28;;;;;;;14.68;4.50;;;16.10;81.00;;;;;;5074324;28;20056;-73
2021/06/19 04:51:54;;;;;;;;;;;16.10;81.00;;;;;;5074636;28;20021;-72
2021/06/19 04:54:20;;;;;;;10.02;4.38;;;16.00;81.30;;;;;;5074026;28;19904;-73
2021/06/19 04:56:46;;;;;;;;;;;16.00;81.30;;;;;;5074464;28;20051;-71
2021/06/19 04:59:12;;;;;;;12.63;5.07;;;16.00;81.20;;;;;;5073837;28;20364;-73
2021/06/19 05:01:37;;;;;;;;;;;16.00;81.30;;;;;;5074513;28;20056;-72
2021/06/19 05:04:03;;;;;;;11.43;4.47;;;16.10;81.10;;;;;;5073848;28;19905;-72
2021/06/19 05:06:29;;;;;;;;;;;16.20;81.20;;;;;;5074243;28;20029;-72
2021/06/19 05:08:55;;;;;;;9.43;4.40;;;16.20;81.40;;;;;;5073758;28;19904;-70
2021/06/19 05:11:21;;;;;;;12.57;5.20;;;16.20;81.30;;;;;;5073831;28;20095;-71
2021/06/19 05:13:47;;;;;;;13.18;5.38;;;16.20;81.20;;;;;;5073718;28;20492;-71
2021/06/19 05:16:14;;;;;;;;;;;16.10;81.20;;;;;;5074129;28;20028;-70
2021/06/19 05:18:40;;;;;;;9.93;4.90;;;16.10;81.00;;;;;;5073756;28;19962;-70
2021/06/19 05:21:06;;;;;;;17.17;5.18;;;16.10;81.60;;;;;;5073577;28;20025;-71
2021/06/19 05:23:32;;;;;;;10.13;5.07;;;16.20;81.60;;;;;;5073639;28;20012;-71
2021/06/19 05:25:58;;;;;;;16.00;5.55;;;16.20;81.30;;;;;;5073454;28;20078;-68
2021/06/19 05:28:24;;;;;;;;;;;16.10;81.80;;;;;;5073905;28;20023;-70
2021/06/19 05:30:50;;;;;;;12.05;5.25;;;16.00;82.20;;;;;;5072140;28;19954;-70
2021/06/19 05:33:16;;;;;;;10.48;5.03;;;16.10;82.40;;;;;;5073352;28;20508;-72
2021/06/19 05:35:42;;;;;;;12.98;5.15;;;16.10;82.50;;;;;;5072511;28;20070;-70
2021/06/19 05:38:07;;;;;;;;;;;16.20;82.00;;;;;;5073640;28;20083;-70
2021/06/19 05:40:33;;;;;;;13.18;5.25;;;16.40;81.30;;;;;;5073327;28;19904;-72
2021/06/19 05:42:59;;;;;;;;;;;16.50;80.80;;;;;;5073686;28;20499;-69
2021/06/19 05:45:25;;;;;;;9.70;5.15;;;16.50;81.00;;;;;;5073245;28;19912;-70
2021/06/19 05:47:50;;;;;;;;;;;16.50;81.20;;;;;;5073656;28;20541;-71
2021/06/19 05:50:16;;;;;;;16.58;6.30;;;16.40;81.50;;;;;;5073354;28;19916;-71
2021/06/19 05:52:42;;;;;;;;;;;16.30;82.20;;;;;;5073564;28;20158;-70
2021/06/19 05:55:09;;;;;;;14.95;6.07;;;16.20;83.60;;;;;;5073084;28;19905;-71
2021/06/19 05:57:35;;;;;;;13.88;6.43;;;16.30;83.60;;;;;;5073284;28;20024;-69
2021/06/19 06:00:00;;;;;;;;;;;16.30;84.10;;;;;;5073675;28;20047;-70
2021/06/19 06:02:26;;;;;;;10.85;6.10;;;16.40;83.10;;;;;;5073039;28;19908;-70
2021/06/19 06:04:52;;;;;;;;;;;16.60;82.40;;;;;;5073505;28;20051;-71
2021/06/19 06:07:18;;;;;;;12.80;6.80;;;16.60;82.20;;;;;;5073018;28;19960;-69
2021/06/19 06:09:43;;;;;;;;;;;16.60;82.40;;;;;;5073438;28;20074;-72
2021/06/19 06:12:10;;;;;;;11.77;6.88;;;16.50;82.90;;;;;;5072954;28;20353;-72
2021/06/19 06:14:36;;;;;;;13.95;6.43;;;16.60;82.40;;;;;;5072921;28;20059;-70
2021/06/19 06:17:03;;;;;;;11.13;6.22;;;16.70;82.80;;;;;;5072924;28;20028;-70
2021/06/19 06:19:29;;;;;;;10.23;6.10;;;16.90;81.50;;;;;;5072798;28;20017;-70
2021/06/19 06:21:54;;;;;;;;;;;16.90;81.60;;;;;;5073522;28;20028;-69
2021/06/19 06:24:20;;;;;;;13.23;6.05;;;16.80;81.40;;;;;;5073182;28;19954;-70
2021/06/19 06:26:46;;;;;;;12.32;6.38;;;16.80;82.00;;;;;;5072826;28;20028;-70
2021/06/19 06:29:12;;;;;;;;;;;17.00;81.20;;;;;;5073205;28;20369;-70
2021/06/19 06:31:38;;;;;;;10.55;5.75;;;17.00;80.80;;;;;;5072759;28;19974;-71
2021/06/19 06:34:04;;;;;;;;;;;17.10;81.10;;;;;;5073485;28;20420;-71
2021/06/19 06:36:29;;;;;;;16.20;5.88;;;17.10;81.20;;;;;;5072636;28;19912;-70
2021/06/19 06:38:58;;;;;;;;;;;17.40;80.30;;;;;;5073006;28;20111;-70
2021/06/19 06:41:24;;;;;;;11.93;5.65;;;17.50;80.00;;;;;;5072654;28;19904;-71
2021/06/19 06:43:50;;;;;;;12.52;6.35;;;17.60;79.60;;;;;;5072810;28;20020;-70
2021/06/19 06:46:16;;;;;;;13.95;7.10;;;17.50;80.00;;;;;;5072607;28;20028;-71
2021/06/19 06:48:41;;;;;;;;;;;17.40;80.10;;;;;;5076161;28;20087;-68
2021/06/19 06:51:07;;;;;;;11.75;5.50;;;17.50;80.80;;;;;;5076386;28;19905;-71
2021/06/19 06:53:33;;;;;;;;;;;17.80;79.30;;;;;;5076765;28;20032;-71
2021/06/19 06:55:58;;;;;;;11.93;6.57;;;17.90;78.40;;;;;;5076301;28;19905;-70
2021/06/19 06:58:24;;;;;;;14.20;6.47;;;18.20;77.60;;;;;;5075918;28;20025;-70
2021/06/19 07:00:50;;;;;;;12.55;6.43;;;18.30;76.90;;;;;;5091825;28;20020;-70
2021/06/19 07:03:15;;;;;;;;;;;18.40;75.50;;;;;;5077032;28;20083;-70
2021/06/19 07:05:41;;;;;;;13.60;6.40;;;18.50;75.90;;;;;;5076243;28;19912;-71
2021/06/19 07:08:07;;;;;;;13.38;6.43;;;18.70;75.40;;;;;;5076028;28;20524;-71
2021/06/19 07:10:32;;;;;;;14.73;6.13;;;18.50;75.00;;;;;;5076221;28;20025;-71
2021/06/19 07:12:58;;;;;;;11.52;6.40;;;18.40;75.70;;;;;;5075935;28;20412;-71
2021/06/19 07:15:24;;;;;;;;;;;18.30;75.10;;;;;;5076357;28;20373;-70
2021/06/19 07:17:50;;;;;;;10.48;6.10;;;18.30;75.10;;;;;;5075810;28;20360;-70
2021/06/19 07:20:17;;;;;;;12.45;6.80;;;18.10;75.60;;;;;;5075853;28;20032;-72
2021/06/19 07:22:43;;;;;;;11.70;6.32;;;18.10;75.70;;;;;;5075936;28;20094;-70
2021/06/19 07:25:10;;;;;;;10.35;5.93;;;18.10;76.20;;;;;;5075796;28;20024;-70
2021/06/19 07:27:37;;;;;;;9.75;5.93;;;18.00;76.40;;;;;;5075655;28;20396;-69
2021/06/19 07:30:08;;;;;;;13.75;6.20;;;18.00;76.20;;;;;;5075687;28;20439;-71
2021/06/19 07:32:34;;;;;;;12.05;6.60;;;17.90;76.90;;;;;;5075572;28;20046;-73
2021/06/19 07:35:00;;;;;;;12.65;6.50;;;18.00;76.40;;;;;;5075198;28;20028;-72
2021/06/19 07:37:26;;;;;;;11.93;5.97;;;17.90;76.60;;;;;;5075052;28;20047;-69
2021/06/19 07:39:54;;;;;;;13.85;5.70;;;18.00;76.60;;;;;;5075350;28;20024;-69
2021/06/19 07:42:21;;;;;;;11.95;5.47;;;18.20;75.80;;;;;;5075668;28;20524;-69
2021/06/19 07:44:48;;;;;;;10.98;5.80;;;18.30;75.80;;;;;;5075433;28;20021;-71
2021/06/19 07:47:14;;;;;;;14.65;5.47;;;18.30;75.30;;;;;;5075353;28;20111;-70
2021/06/19 07:49:39;;;;;;;10.32;5.10;;;18.50;75.30;;;;;;5075302;28;20483;-71
2021/06/19 07:52:05;;;;;;;11.60;4.68;;;18.90;73.70;;;;;;5075249;28;20095;-69
2021/06/19 07:54:31;;;;;;;8.48;4.80;;;19.20;73.10;;;;;;5075306;28;20111;-71
2021/06/19 07:56:57;;;;;;;9.45;5.03;;;19.30;71.60;;;;;;5075205;28;20106;-71
2021/06/19 07:59:23;;;;;;;9.10;4.90;;;19.40;71.00;;;;;;5074268;28;20028;-70
2021/06/19 08:01:48;;;;;;;8.30;4.60;;;19.40;71.20;;;;;;5075073;28;20488;-71
2021/06/19 08:04:14;;;;;;;9.98;4.65;;;19.30;71.30;;;;;;5075016;28;20078;-71
2021/06/19 08:06:40;;;;;;;9.25;4.50;;;19.50;71.10;;;;;;5074974;28;20119;-70
2021/06/19 08:09:05;;;;;;;9.80;4.60;;;19.70;70.00;;;;;;5075011;28;20035;-71
2021/06/19 08:11:32;;;;;;;9.90;5.00;;;19.60;70.20;;;;;;5074923;28;20531;-70
2021/06/19 08:13:58;;;;;;;13.00;5.15;;;19.60;69.30;;;;;;5090402;28;20462;-71
2021/06/19 08:16:26;;;;;;;10.93;5.00;;;19.70;69.50;;;;;;5074764;28;20024;-72
2021/06/19 08:18:51;;;;;;;12.55;5.95;;;19.70;69.70;;;;;;5074717;28;20024;-68
2021/06/19 08:21:17;;;;;;;11.75;5.22;;;19.90;69.20;;;;;;5075001;28;20024;-70
2021/06/19 08:23:43;;;;;;;8.05;4.55;;;19.90;68.80;;;;;;5074554;28;20020;-71
2021/06/19 08:26:09;;;;;;;10.00;4.93;;;20.40;67.20;;;;;;5074941;28;20370;-71
2021/06/19 08:28:35;;;;;;;10.18;4.30;;;21.00;66.90;;;;;;5074608;28;20095;-71
2021/06/19 08:31:02;;;;;;;10.27;5.18;;;20.90;65.70;;;;;;5074634;28;20020;-70
2021/06/19 08:33:28;;;;;;;8.43;4.03;;;20.80;66.00;;;;;;5074395;28;20500;-70
2021/06/19 08:35:54;;;;;;;9.65;4.07;;;20.60;67.50;;;;;;5072580;28;20045;-70
2021/06/19 08:38:19;;;;;;;8.88;4.32;;;20.60;67.10;;;;;;5083975;28;20036;-69
2021/06/19 08:40:45;;;;;;;8.02;4.50;;;20.70;67.00;;;;;;5094702;28;20038;-70
2021/06/19 08:43:11;;;;;;;8.93;4.78;;;20.50;67.10;;;;;;5094479;28;20031;-71
2021/06/19 08:45:37;;;;;;;9.32;4.78;;;20.40;67.80;;;;;;5084051;28;20020;-70
2021/06/19 08:48:04;;;;;;;9.13;4.75;;;20.30;67.70;;;;;;5073804;28;20032;-70
2021/06/19 08:50:30;;;;;;;9.70;4.60;;;20.10;69.00;;;;;;5074244;28;20021;-70
2021/06/19 08:52:59;;;;;;;9.75;5.05;;;20.10;68.70;;;;;;5081701;28;20047;-70
2021/06/19 08:55:26;;;;;;;9.18;4.78;;;20.20;68.40;;;;;;5093878;28;20028;-71
2021/06/19 08:57:51;;;;;;;8.77;4.90;;;20.10;68.80;;;;;;5093958;28;20081;-69
2021/06/19 09:00:18;;;;;;;8.85;4.50;;;19.90;69.50;;;;;;5093755;28;20012;-72
2021/06/19 09:02:46;;;;;;;8.23;4.88;;;19.80;69.70;;;;;;5074199;28;20060;-72
2021/06/19 09:05:15;;;;;;;13.95;4.95;;;19.90;68.80;;;;;;5073336;28;20013;-71
2021/06/19 09:07:48;;;;;;;9.55;4.85;;;19.70;70.30;;;;;;5073459;28;20096;-72
2021/06/19 09:10:21;;;;;;;9.55;4.20;;;19.70;69.70;;;;;;5073701;28;20031;-71
2021/06/19 09:13:06;;;;;;;10.35;5.63;;;20.00;69.40;;;;;;5073760;28;20029;-69
2021/06/19 09:15:47;;;;;;;10.93;5.95;;;20.00;68.30;;;;;;5080702;28;20012;-70
2021/06/19 09:18:24;;;;;;;10.52;5.60;;;19.90;68.70;;;;;;5093944;28;20024;-72
2021/06/19 09:21:09;;;;;;;10.02;5.35;;;20.00;69.50;;;;;;5093854;28;20039;-70
2021/06/19 09:23:42;;;;;;;10.10;5.90;;;20.20;69.30;;;;;;5093887;28;20031;-70
2021/06/19 09:26:14;;;;;;;9.60;5.88;;;20.30;67.70;;;;;;5078833;28;20024;-71
2021/06/19 09:29:16;;;;;;;10.13;5.93;;;20.20;68.10;;;;;;5073296;28;20056;-72
2021/06/19 09:31:51;;;;;;;10.30;5.70;;;20.20;69.10;;;;;;5080059;28;20026;-71
2021/06/19 09:34:26;;;;;;;11.05;5.90;;;20.00;69.10;;;;;;5093852;28;20494;-70
2021/06/19 09:36:57;;;;;;;10.13;5.80;;;19.60;71.10;;;;;;5093151;28;20050;-70
2021/06/19 09:39:25;;;;;;;14.27;5.10;;;19.80;70.10;;;;;;5093532;28;20060;-70
2021/06/19 09:41:57;;;;;;;11.32;5.80;;;20.10;69.40;;;;;;5075701;28;20055;-71
2021/06/19 09:44:48;;;;;;;9.05;5.28;;;20.50;67.90;;;;;;5093604;28;20043;-73
2021/06/19 09:47:18;;;;;;;10.20;6.00;;;20.80;66.80;;;;;;5093618;28;20030;-71
2021/06/19 09:49:47;;;;;;;10.50;5.47;;;20.70;66.30;;;;;;5093446;28;20407;-70
2021/06/19 09:52:14;;;;;;;12.63;5.55;;;20.70;67.30;;;;;;5093482;28;20020;-71
2021/06/19 09:54:42;;;;;;;11.35;5.50;;;21.00;66.40;;;;;;5093432;28;20376;-72
2021/06/19 09:57:13;;;;;;;8.50;5.07;;;20.90;66.10;;;;;;5092745;28;20060;-69
2021/06/19 09:59:39;;;;;;;13.57;5.80;;;21.40;64.60;;;;;;5093265;28;20074;-70
2021/06/19 10:02:35;;;;;;;9.90;5.47;;;21.40;64.10;;;;;;5091990;28;20028;-70
2021/06/19 10:05:01;;;;;;;10.98;5.30;;;20.90;65.80;;;;;;5059558;28;20043;-72
2021/06/19 10:07:28;;;;;;;9.40;5.90;;;20.70;66.20;;;;;;5072987;28;20534;-70
2021/06/19 10:09:57;;;;;;;8.80;5.10;;;20.70;66.40;;;;;;5073151;28;20024;-70
2021/06/19 10:12:25;;;;;;;11.25;6.20;;;20.70;66.60;;;;;;5073081;28;20112;-70
2021/06/19 10:14:57;;;;;;;8.88;5.38;;;20.60;66.70;;;;;;5072642;28;20468;-69
2021/06/19 10:17:28;;;;;;;10.43;5.95;;;20.80;66.60;;;;;;5073026;28;20033;-70
2021/06/19 10:19:55;;;;;;;14.63;6.30;;;20.70;66.90;;;;;;5073132;28;20112;-71
2021/06/19 10:22:28;;;;;;;10.63;5.80;;;20.70;67.30;;;;;;5073872;28;20095;-72
2021/06/19 10:24:55;;;;;;;10.38;5.85;;;21.10;65.90;;;;;;5077309;28;20500;-70
2021/06/19 10:27:23;;;;;;;12.30;5.65;;;21.40;65.60;;;;;;5076704;28;20419;-70
2021/06/19 10:29:51;;;;;;;11.32;6.20;;;21.40;65.20;;;;;;5075227;28;20127;-70
2021/06/19 10:32:50;;;;;;;12.02;6.50;;;21.50;64.60;;;;;;5076537;28;20055;-71
2021/06/19 10:35:21;;;;;;;12.38;6.05;;;21.50;64.20;;;;;;5075983;28;20021;-70
2021/06/19 10:37:49;;;;;;;9.75;5.30;;;21.90;63.60;;;;;;5076664;28;20072;-70
2021/06/19 10:40:24;;;;;;;9.25;4.95;;;22.20;63.70;;;;;;5076640;28;20499;-71
2021/06/19 10:42:53;;;;;;;10.07;5.95;;;22.50;62.60;;;;;;5076700;28;20021;-69
2021/06/19 10:45:31;;;;;;;10.00;6.13;;;22.50;62.00;;;;;;5076501;28;20111;-72
2021/06/19 10:48:01;;;;;;;9.73;6.30;;;22.40;62.10;;;;;;5076699;28;20028;-71
2021/06/19 10:50:28;;;;;;;10.20;6.82;;;22.20;64.00;;;;;;5076435;28;20039;-71
2021/06/19 10:53:22;;;;;;;11.65;6.90;;;22.30;62.40;;;;;;5076434;28;20052;-71
2021/06/19 10:55:55;;;;;;;12.05;7.13;;;21.80;64.70;;;;;;5073492;28;20028;-70
2021/06/19 10:58:26;;;;;;;12.60;7.10;;;21.20;66.40;;;;;;5074383;28;20430;-71
2021/06/19 11:00:59;;;;;;;11.55;7.22;;;20.80;67.90;;;;;;5075509;28;20052;-70
2021/06/19 11:03:48;;;;;;;11.40;7.03;;;21.00;68.00;;;;;;5075602;28;20028;-72
2021/06/19 11:06:23;;;;;;;11.65;7.47;;;20.80;68.80;;;;;;5075639;28;20048;-71
2021/06/19 11:09:15;;;;;;;11.88;7.47;;;20.70;69.00;;;;;;5075578;28;20495;-72
2021/06/19 11:11:54;;;;;;;10.82;6.75;;;20.50;69.20;;;;;;5075715;28;20036;-71
2021/06/19 11:14:38;;;;;;;13.48;7.82;;;20.30;70.50;;;;;;5076065;28;20439;-69
2021/06/19 11:17:04;;;;;;;12.98;7.50;;;20.30;70.10;;;;;;5075972;28;20090;-73
2021/06/19 11:19:41;;;;;;;13.48;7.35;;;20.60;69.90;;;;;;5075862;28;20025;-71
2021/06/19 11:22:26;;;;;;;13.95;7.95;;;20.60;69.60;;;;;;5074191;28;20480;-71
2021/06/19 11:25:14;;;;;;;12.02;7.30;;;20.60;69.80;;;;;;5075785;28;20021;-72
2021/06/19 11:28:02;;;;;;;11.32;7.57;;;20.60;69.80;;;;;;5075712;28;20023;-69
2021/06/19 11:30:36;;;;;;;15.75;7.82;;;20.30;71.20;;;;;;5076112;28;20016;-71
2021/06/19 11:33:20;;;;;;;14.57;7.80;;;20.30;72.20;;;;;;5074124;28;20021;-71
2021/06/19 11:36:01;;;;;;;13.55;7.47;;;20.30;72.80;;;;;;5074820;28;20093;-71
2021/06/19 11:38:48;;;;;;;12.95;8.98;;;20.10;73.20;;;;;;5075530;28;20028;-72
2021/06/19 11:41:16;;;;;;;12.98;6.80;;;19.90;75.00;;;;;;5075733;28;20074;-71
2021/06/19 11:43:44;;;;;;;13.93;7.93;;;20.10;76.20;;;;;;5075432;28;20023;-72
2021/06/19 11:46:10;;;;;;;14.45;7.80;;;20.30;72.50;;;;;;5074122;28;20489;-70
2021/06/19 11:49:02;;;;;;;12.25;6.63;;;20.50;73.10;;;;;;5075331;28;20102;-69
2021/06/19 11:51:31;;;;;;;11.40;7.00;;;20.50;74.30;;;;;;5075557;28;20062;-70
2021/06/19 11:53:57;;;;;;;9.52;6.57;;;20.70;74.70;;;;;;5075362;28;20036;-70
2021/06/19 11:56:26;;;;;;;11.25;6.50;;;21.10;72.40;;;;;;5075240;28;20484;-71
2021/06/19 11:58:57;;;;;;;11.75;7.13;;;21.40;72.00;;;;;;5075072;28;20412;-72
2021/06/19 12:01:29;;;;;;;11.00;6.90;;;21.40;72.10;;;;;;5075146;28;20330;-70
2021/06/19 12:03:59;;;;;;;11.38;6.35;;;21.30;70.80;;;;;;5075352;28;20020;-71
2021/06/19 12:06:35;;;;;;;12.77;7.57;;;21.40;70.30;;;;;;5073493;28;20021;-69
2021/06/19 12:09:09;;;;;;;12.18;7.30;;;21.30;70.10;;;;;;5075100;28;20031;-69
2021/06/19 12:11:40;;;;;;;12.80;7.28;;;21.50;68.50;;;;;;5074982;28;20021;-71
2021/06/19 12:14:36;;;;;;;11.70;7.18;;;21.50;69.80;;;;;;5074938;28;20031;-71
2021/06/19 12:17:05;;;;;;;11.05;6.88;;;21.40;68.80;;;;;;5070210;28;20039;-69
2021/06/19 12:19:33;;;;;;;13.63;7.93;;;21.10;69.90;;;;;;5073414;28;20488;-71
2021/06/19 12:22:07;;;;;;;10.82;7.63;;;20.70;71.50;;;;;;5074674;28;20040;-70
2021/06/19 12:24:36;;;;;;;12.13;7.03;;;20.50;72.80;;;;;;5074990;28;20020;-70
2021/06/19 12:27:10;;;;;;;11.48;7.65;;;20.60;72.60;;;;;;5074686;28;20113;-72
2021/06/19 12:29:48;;;;;;;13.05;7.82;;;21.10;71.70;;;;;;5074663;28;20115;-71
2021/06/19 12:32:35;;;;;;;11.52;7.28;;;21.30;70.70;;;;;;5074979;28;20109;-71
2021/06/19 12:35:05;;;;;;;14.18;7.60;;;21.40;71.30;;;;;;5074720;28;20025;-70
2021/06/19 12:37:55;;;;;;;12.10;7.65;;;21.40;70.60;;;;;;5074477;28;20403;-71
2021/06/19 12:40:34;;;;;;;11.57;7.90;;;21.00;71.90;;;;;;5074357;28;20029;-71
2021/06/19 12:43:00;;;;;;;13.15;7.95;;;21.00;72.70;;;;;;5074515;28;20028;-71
2021/06/19 12:45:31;;;;;;;12.38;8.65;;;21.00;70.30;;;;;;5073934;28;20021;-71
2021/06/19 12:47:57;;;;;;;13.30;9.40;;;21.00;71.60;;;;;;5074373;28;20477;-73
2021/06/19 12:50:32;;;;;;;13.18;8.77;;;20.90;70.90;;;;;;5074174;28;20027;-72
2021/06/19 12:52:59;;;;;;;14.43;8.38;;;20.80;73.00;;;;;;5074140;28;20017;-72
2021/06/19 12:55:26;;;;;;;12.68;8.68;;;20.60;73.90;;;;;;5074076;28;20031;-69
2021/06/19 12:58:10;;;;;;;13.45;8.82;;;20.80;74.60;;;;;;5074121;28;20024;-71
2021/06/19 13:00:49;;;;;;;12.75;8.65;;;20.80;74.90;;;;;;5073973;28;20025;-72